White Oak, Ohio
Current Conditions -  °F | °C
As of 11:35 AM on Wednesday 22 Oct 2014 (Local Time) from KI67 Reporting Station
Overcast Overcast  
Wind Chill: 10°   Ceiling: 2800
Heat Index: 10°   Visibility: 10mi
Dew Point:   Wind: 8mph
Humidity: 62%   Direction: 20°NNE
Pressure: 30.31"   Gusts: NA
Location:  39.2201°N, 84.6531°W
Report Text: KI67 221535Z AUTO 02007KT 10SM OVC028 10/03 A3031 RMK AO1
Loading
Personal Weather Stations






























Interactive Weather Map
Tropical Storm Tracking
New forecast layout! Learn more

10-Day Weather Forecast

Advertisements
Track Severe Weather on mobile